createdAt,value
2023-03-29T00:01:35.547Z,2.28
2023-03-29T00:04:04.528Z,1.98
2023-03-29T00:06:31.065Z,1.90
2023-03-29T00:08:57.367Z,2.33
2023-03-29T00:11:23.786Z,2.15
2023-03-29T00:13:50.282Z,2.30
2023-03-29T00:16:16.927Z,2.22
2023-03-29T00:18:43.973Z,2.40
2023-03-29T00:21:10.932Z,2.42
2023-03-29T00:23:37.307Z,2.50
2023-03-29T00:26:05.316Z,2.30
2023-03-29T00:28:33.568Z,2.15
2023-03-29T00:31:05.262Z,2.47
2023-03-29T00:33:31.896Z,2.55
2023-03-29T00:35:58.301Z,2.35
2023-03-29T00:38:24.656Z,2.80
2023-03-29T00:40:50.984Z,2.38
2023-03-29T00:43:17.414Z,2.60
2023-03-29T00:45:43.725Z,2.13
2023-03-29T00:48:17.200Z,2.38
2023-03-29T00:50:48.623Z,2.45
2023-03-29T00:53:27.361Z,2.05
2023-03-29T00:56:05.450Z,2.03
2023-03-29T00:58:37.206Z,2.45
2023-03-29T01:01:07.693Z,2.33
2023-03-29T01:03:42.211Z,2.35
2023-03-29T01:06:10.398Z,2.28
2023-03-29T01:08:52.816Z,2.33
2023-03-29T01:11:24.762Z,2.40
2023-03-29T01:14:02.892Z,2.45
2023-03-29T01:16:31.494Z,2.40
2023-03-29T01:18:57.901Z,2.15
2023-03-29T01:21:42.994Z,2.10
2023-03-29T01:24:51.571Z,2.30
2023-03-29T01:27:50.279Z,2.00
2023-03-29T01:30:22.805Z,2.03
2023-03-29T01:32:57.245Z,2.20
2023-03-29T01:35:46.689Z,2.53
2023-03-29T01:38:18.730Z,2.70
2023-03-29T01:40:45.152Z,2.30
2023-03-29T01:43:21.811Z,2.40
2023-03-29T01:45:58.461Z,2.10
2023-03-29T01:48:30.666Z,2.47
2023-03-29T01:51:16.011Z,2.33
2023-03-29T01:53:49.482Z,2.47
2023-03-29T01:56:26.328Z,2.33
2023-03-29T01:58:57.950Z,2.20
2023-03-29T02:01:27.999Z,2.88
2023-03-29T02:03:59.126Z,2.63
2023-03-29T02:06:27.836Z,2.33
2023-03-29T02:08:54.792Z,2.58
2023-03-29T02:11:24.202Z,2.72
2023-03-29T02:13:50.504Z,2.83
2023-03-29T02:16:17.371Z,2.85
2023-03-29T02:18:46.104Z,2.65
2023-03-29T02:21:19.654Z,2.90
2023-03-29T02:23:46.728Z,2.72
2023-03-29T02:26:13.737Z,2.88
2023-03-29T02:28:41.729Z,2.90
2023-03-29T02:31:16.343Z,2.63
2023-03-29T02:33:56.921Z,2.45
2023-03-29T02:36:29.518Z,3.15
2023-03-29T02:38:59.040Z,2.35
2023-03-29T02:41:26.604Z,2.70
2023-03-29T02:43:55.485Z,2.75
2023-03-29T02:46:22.080Z,2.78
2023-03-29T02:48:51.027Z,2.72
2023-03-29T02:51:24.347Z,3.10
2023-03-29T02:54:01.725Z,2.90
2023-03-29T02:56:28.135Z,3.40
2023-03-29T02:58:54.500Z,2.55
2023-03-29T03:01:20.945Z,3.25
2023-03-29T03:03:47.695Z,2.63
2023-03-29T03:06:14.014Z,2.60
2023-03-29T03:08:40.406Z,2.35
2023-03-29T03:11:06.708Z,2.75
2023-03-29T03:13:32.998Z,2.65
2023-03-29T03:15:59.413Z,2.70
2023-03-29T03:18:25.757Z,2.30
2023-03-29T03:20:59.410Z,2.35
2023-03-29T03:23:26.013Z,2.28
2023-03-29T03:25:52.658Z,2.33
2023-03-29T03:28:20.024Z,2.42
2023-03-29T03:30:46.308Z,2.10
2023-03-29T03:33:12.600Z,2.15
2023-03-29T03:35:39.185Z,2.35
2023-03-29T03:38:05.541Z,2.15
2023-03-29T03:40:32.225Z,2.28
2023-03-29T03:42:58.514Z,2.28
2023-03-29T03:45:24.838Z,2.17
2023-03-29T03:47:51.760Z,2.05
2023-03-29T03:50:18.248Z,2.40
2023-03-29T03:52:44.702Z,2.25
2023-03-29T03:55:11.047Z,2.13
2023-03-29T03:57:37.449Z,1.92
2023-03-29T04:00:05.589Z,2.33
2023-03-29T04:02:31.937Z,1.83
2023-03-29T04:04:58.288Z,1.90
2023-03-29T04:07:24.613Z,2.30
2023-03-29T04:09:50.926Z,2.28
2023-03-29T04:12:17.228Z,1.88
2023-03-29T04:14:43.521Z,2.28
2023-03-29T04:17:09.789Z,1.80
2023-03-29T04:19:36.117Z,1.90
2023-03-29T04:22:02.393Z,2.05
2023-03-29T04:24:28.790Z,1.65
2023-03-29T04:26:55.068Z,1.92
2023-03-29T04:29:21.369Z,2.22
2023-03-29T04:31:47.783Z,2.25
2023-03-29T04:34:14.132Z,2.25
2023-03-29T04:36:40.449Z,1.80
2023-03-29T04:39:06.860Z,2.13
2023-03-29T04:41:33.930Z,2.13
2023-03-29T04:44:00.488Z,2.15
2023-03-29T04:46:26.985Z,2.30
2023-03-29T04:48:53.610Z,2.15
2023-03-29T04:51:20.262Z,2.30
2023-03-29T04:53:46.561Z,2.17
2023-03-29T04:56:13.016Z,2.50
2023-03-29T04:58:39.307Z,2.33
2023-03-29T05:01:05.878Z,2.65
2023-03-29T05:03:32.367Z,3.00
2023-03-29T05:06:10.004Z,2.13
2023-03-29T05:08:37.595Z,2.47
2023-03-29T05:11:04.192Z,2.80
2023-03-29T05:13:30.801Z,2.70
2023-03-29T05:15:57.238Z,2.72
2023-03-29T05:18:23.592Z,2.72
2023-03-29T05:20:51.492Z,2.33
2023-03-29T05:23:17.808Z,2.95
2023-03-29T05:25:44.098Z,2.58
2023-03-29T05:28:10.370Z,2.70
2023-03-29T05:30:36.686Z,3.13
2023-03-29T05:33:03.111Z,2.28
2023-03-29T05:35:29.510Z,2.85
2023-03-29T05:37:55.884Z,2.90
2023-03-29T05:40:22.486Z,2.75
2023-03-29T05:42:48.854Z,3.20
2023-03-29T05:45:15.146Z,2.70
2023-03-29T05:47:41.600Z,3.05
2023-03-29T05:50:08.945Z,2.63
2023-03-29T05:52:35.241Z,3.05
2023-03-29T05:55:02.660Z,2.67
2023-03-29T05:57:29.165Z,2.90
2023-03-29T05:59:55.544Z,2.95
2023-03-29T06:02:22.984Z,3.00
2023-03-29T06:04:49.382Z,2.45
2023-03-29T06:07:15.724Z,2.72
2023-03-29T06:09:42.033Z,2.20
2023-03-29T06:12:08.591Z,2.35
2023-03-29T06:14:34.965Z,2.85
2023-03-29T06:17:01.402Z,2.47
2023-03-29T06:19:27.778Z,2.85
2023-03-29T06:21:54.122Z,2.58
2023-03-29T06:24:20.463Z,2.50
2023-03-29T06:26:46.857Z,2.50
2023-03-29T06:29:13.181Z,2.88
2023-03-29T06:31:39.681Z,2.78
2023-03-29T06:34:06.019Z,2.65
2023-03-29T06:36:32.312Z,2.70
2023-03-29T06:38:58.688Z,2.88
2023-03-29T06:41:25.010Z,2.88
2023-03-29T06:43:51.405Z,2.78
2023-03-29T06:46:17.714Z,2.75
2023-03-29T06:48:44.168Z,2.80
2023-03-29T06:51:10.459Z,3.00
2023-03-29T06:53:36.757Z,3.00
2023-03-29T06:56:03.845Z,2.85
2023-03-29T06:58:30.161Z,3.35
2023-03-29T07:01:00.807Z,3.08
2023-03-29T07:03:27.585Z,2.85
2023-03-29T07:05:54.004Z,2.85
2023-03-29T07:08:20.518Z,3.38
2023-03-29T07:10:50.629Z,2.53
2023-03-29T07:13:16.899Z,3.22
2023-03-29T07:15:43.850Z,2.80
2023-03-29T07:18:11.012Z,3.10
2023-03-29T07:20:37.343Z,3.05
2023-03-29T07:23:04.024Z,2.90
2023-03-29T07:25:30.354Z,3.20
2023-03-29T07:27:56.931Z,2.78
2023-03-29T07:30:26.224Z,2.80
2023-03-29T07:32:52.654Z,2.85
2023-03-29T07:35:19.542Z,2.70
2023-03-29T07:37:48.067Z,2.70
2023-03-29T07:40:17.109Z,2.80
2023-03-29T07:42:45.047Z,3.38
2023-03-29T07:45:12.934Z,2.72
2023-03-29T07:47:43.304Z,2.92
2023-03-29T07:50:10.134Z,3.10
2023-03-29T07:52:37.753Z,3.05
2023-03-29T07:55:08.579Z,2.83
2023-03-29T07:57:35.856Z,3.00
2023-03-29T08:00:02.503Z,2.72
2023-03-29T08:02:28.910Z,2.60
2023-03-29T08:04:55.315Z,3.13
2023-03-29T08:07:21.662Z,2.88
2023-03-29T08:09:47.949Z,2.67
2023-03-29T08:12:14.283Z,2.83
2023-03-29T08:14:40.666Z,11.73
2023-03-29T08:17:07.118Z,4.68
2023-03-29T08:19:33.582Z,8.85
2023-03-29T08:22:00.659Z,14.23
2023-03-29T08:24:27.064Z,4.15
2023-03-29T08:26:53.360Z,3.67
2023-03-29T08:29:19.770Z,3.20
2023-03-29T08:31:46.074Z,3.30
2023-03-29T08:34:13.731Z,2.97
2023-03-29T08:36:40.165Z,2.83
2023-03-29T08:39:06.471Z,3.00
2023-03-29T08:41:38.834Z,2.85
2023-03-29T08:44:22.257Z,2.70
2023-03-29T08:47:12.622Z,3.00
2023-03-29T08:49:42.119Z,2.78
2023-03-29T08:52:21.055Z,1.95
2023-03-29T08:54:52.954Z,2.75
2023-03-29T08:57:24.562Z,1.88
2023-03-29T08:59:53.453Z,2.20
2023-03-29T09:02:33.433Z,2.10
2023-03-29T09:05:18.072Z,2.63
2023-03-29T09:07:44.415Z,1.90
2023-03-29T09:10:16.713Z,2.10
2023-03-29T09:13:19.166Z,2.15
2023-03-29T09:16:04.647Z,2.50
2023-03-29T09:18:51.701Z,1.90
2023-03-29T09:21:30.440Z,2.00
2023-03-29T09:24:07.006Z,2.20
2023-03-29T09:26:41.715Z,2.10
2023-03-29T09:29:27.270Z,2.20
2023-03-29T09:31:55.619Z,2.00
2023-03-29T09:34:31.679Z,1.90
2023-03-29T09:37:07.942Z,1.77
2023-03-29T09:39:34.283Z,1.70
2023-03-29T09:42:06.326Z,1.63
2023-03-29T09:44:40.459Z,2.30
2023-03-29T09:47:29.844Z,1.50
2023-03-29T09:50:02.487Z,1.90
2023-03-29T09:52:28.869Z,1.60
2023-03-29T09:54:55.181Z,1.60
2023-03-29T09:57:21.538Z,1.50
2023-03-29T09:59:50.687Z,1.45
2023-03-29T10:02:19.242Z,1.50
2023-03-29T10:04:45.568Z,2.00
2023-03-29T10:07:19.723Z,1.60
2023-03-29T10:09:48.673Z,1.52
2023-03-29T10:12:16.190Z,1.98
2023-03-29T10:14:46.120Z,1.50
2023-03-29T10:17:24.639Z,1.50
2023-03-29T10:20:04.519Z,1.70
2023-03-29T10:22:36.257Z,1.10
2023-03-29T10:25:03.201Z,1.20
2023-03-29T10:27:32.552Z,1.50
2023-03-29T10:30:00.999Z,1.67
2023-03-29T10:32:38.021Z,1.45
2023-03-29T10:35:16.273Z,1.50
2023-03-29T10:37:44.811Z,1.40
2023-03-29T10:40:33.330Z,1.50
2023-03-29T10:43:01.750Z,1.52
2023-03-29T10:45:34.678Z,1.65
2023-03-29T10:48:03.639Z,1.20
2023-03-29T10:50:35.838Z,1.15
2023-03-29T10:53:03.288Z,1.38
2023-03-29T10:55:37.115Z,1.10
2023-03-29T10:58:31.508Z,1.27
2023-03-29T11:00:58.152Z,1.02
2023-03-29T11:03:42.954Z,1.30
2023-03-29T11:06:56.078Z,1.40
2023-03-29T11:09:40.345Z,1.20
2023-03-29T11:12:26.868Z,1.40
2023-03-29T11:15:11.629Z,1.40
2023-03-29T11:17:53.355Z,1.40
2023-03-29T11:20:28.712Z,1.40
2023-03-29T11:23:27.542Z,1.42
2023-03-29T11:26:23.777Z,1.70
2023-03-29T11:29:06.370Z,1.25
2023-03-29T11:31:32.870Z,1.40
2023-03-29T11:34:20.674Z,1.58
2023-03-29T11:36:53.585Z,1.40
2023-03-29T11:39:30.360Z,1.73
2023-03-29T11:42:06.157Z,1.30
2023-03-29T11:44:35.339Z,2.42
2023-03-29T11:47:12.710Z,1.95
2023-03-29T11:50:17.641Z,1.80
2023-03-29T11:52:51.166Z,1.70
2023-03-29T11:55:25.447Z,1.80
2023-03-29T11:57:55.833Z,1.50
2023-03-29T12:00:38.065Z,1.60
2023-03-29T12:03:07.335Z,1.63
2023-03-29T12:05:45.528Z,1.38
2023-03-29T12:08:18.650Z,1.50
2023-03-29T12:11:12.869Z,1.85
2023-03-29T12:14:01.696Z,1.83
2023-03-29T12:16:35.107Z,2.72
2023-03-29T12:19:13.360Z,4.25
2023-03-29T12:21:41.320Z,2.03
2023-03-29T12:24:12.500Z,1.30
2023-03-29T12:27:20.213Z,1.15
2023-03-29T12:30:20.399Z,1.23
2023-03-29T12:32:58.316Z,1.38
2023-03-29T12:35:49.410Z,1.20
2023-03-29T12:38:20.928Z,1.30
2023-03-29T12:40:53.996Z,1.08
2023-03-29T12:43:30.329Z,1.17
2023-03-29T12:46:08.765Z,1.15
2023-03-29T12:48:38.884Z,1.10
2023-03-29T12:51:11.779Z,1.20
2023-03-29T12:53:42.097Z,1.48
2023-03-29T12:56:17.761Z,0.90
2023-03-29T12:58:53.047Z,1.35
2023-03-29T13:02:11.822Z,1.60
2023-03-29T13:04:50.308Z,1.20
2023-03-29T13:07:22.505Z,1.70
2023-03-29T13:09:51.849Z,1.63
2023-03-29T13:12:25.684Z,1.27
2023-03-29T13:15:07.821Z,1.92
2023-03-29T13:17:36.641Z,1.38
2023-03-29T13:20:32.002Z,1.40
2023-03-29T13:23:30.481Z,2.00
2023-03-29T13:26:20.800Z,1.60
2023-03-29T13:29:14.365Z,1.52
2023-03-29T13:31:49.752Z,1.75
2023-03-29T13:34:37.090Z,1.63
2023-03-29T13:37:22.763Z,1.60
2023-03-29T13:39:54.604Z,1.75
2023-03-29T13:42:32.983Z,1.73
2023-03-29T13:45:29.745Z,1.50
2023-03-29T13:48:28.116Z,1.80
2023-03-29T13:50:57.316Z,1.95
2023-03-29T13:53:32.507Z,1.92
2023-03-29T13:55:59.606Z,1.95
2023-03-29T13:58:47.706Z,2.20
2023-03-29T14:01:27.287Z,2.10
2023-03-29T14:03:55.333Z,1.83
2023-03-29T14:06:26.558Z,1.95
2023-03-29T14:08:54.107Z,1.90
2023-03-29T14:11:29.485Z,2.65
2023-03-29T14:13:58.541Z,2.10
2023-03-29T14:16:39.814Z,1.90
2023-03-29T14:19:15.325Z,2.05
2023-03-29T14:21:43.588Z,1.77
2023-03-29T14:24:20.480Z,1.63
2023-03-29T14:26:47.755Z,1.75
2023-03-29T14:29:14.516Z,1.90
2023-03-29T14:31:42.277Z,1.95
2023-03-29T14:34:17.182Z,2.60
2023-03-29T14:36:45.580Z,1.92
2023-03-29T14:39:23.193Z,1.90
2023-03-29T14:41:53.878Z,1.77
2023-03-29T14:44:21.978Z,1.80
2023-03-29T14:46:48.375Z,2.20
2023-03-29T14:49:20.481Z,1.80
2023-03-29T14:51:47.938Z,1.80
2023-03-29T14:54:24.885Z,1.60
2023-03-29T14:56:52.002Z,1.80
2023-03-29T15:02:04.985Z,1.75
2023-03-29T15:07:05.896Z,1.90
2023-03-29T15:09:34.379Z,1.60
2023-03-29T15:12:02.523Z,1.77
2023-03-29T15:14:32.460Z,1.70
2023-03-29T15:17:09.566Z,1.80
2023-03-29T15:19:36.258Z,1.80
2023-03-29T15:22:07.644Z,2.10
2023-03-29T15:24:34.036Z,1.70
2023-03-29T15:27:10.933Z,1.70
2023-03-29T15:29:40.165Z,1.67
2023-03-29T15:32:06.595Z,1.75
2023-03-29T15:34:33.539Z,2.17
2023-03-29T15:37:01.473Z,1.70
2023-03-29T15:39:29.048Z,1.70
2023-03-29T15:41:56.933Z,1.60
2023-03-29T15:44:27.981Z,1.75
2023-03-29T15:46:55.226Z,2.03
2023-03-29T15:49:21.636Z,2.08
2023-03-29T15:51:47.958Z,1.60
2023-03-29T15:54:14.373Z,1.63
2023-03-29T15:56:48.756Z,2.10
2023-03-29T15:59:15.392Z,1.30
2023-03-29T16:01:42.015Z,1.80
2023-03-29T16:04:14.628Z,1.83
2023-03-29T16:06:42.642Z,2.03
2023-03-29T16:09:09.259Z,1.60
2023-03-29T16:11:35.714Z,1.63
2023-03-29T16:14:02.193Z,1.67
2023-03-29T16:16:28.697Z,1.83
2023-03-29T16:18:55.019Z,4.78
2023-03-29T16:21:22.167Z,3.88
2023-03-29T16:23:48.512Z,3.25
2023-03-29T16:26:16.713Z,4.40
2023-03-29T16:28:43.499Z,4.30
2023-03-29T16:31:11.649Z,3.38
2023-03-29T16:33:38.699Z,2.78
2023-03-29T16:36:05.615Z,2.25
2023-03-29T16:38:32.070Z,3.50
2023-03-29T16:40:58.402Z,2.90
2023-03-29T16:43:24.729Z,2.40
2023-03-29T16:45:51.076Z,4.32
2023-03-29T16:48:19.039Z,6.55
2023-03-29T16:50:46.322Z,18.20
2023-03-29T16:55:38.875Z,5.78
2023-03-29T16:58:05.171Z,3.75
2023-03-29T17:00:31.958Z,2.15
2023-03-29T17:02:58.361Z,2.28
2023-03-29T17:05:24.681Z,4.50
2023-03-29T17:07:50.990Z,5.30
2023-03-29T17:10:17.285Z,4.75
2023-03-29T17:12:43.647Z,3.15
2023-03-29T17:15:10.405Z,2.70
2023-03-29T17:17:37.100Z,2.40
2023-03-29T17:20:05.990Z,4.07
2023-03-29T17:22:32.292Z,4.05
2023-03-29T17:24:58.636Z,3.40
2023-03-29T17:27:25.014Z,4.93
2023-03-29T17:29:51.329Z,4.38
2023-03-29T17:32:17.687Z,3.63
2023-03-29T17:34:44.155Z,3.40
2023-03-29T17:37:10.437Z,3.55
2023-03-29T17:39:36.765Z,3.88
2023-03-29T17:42:04.412Z,4.38
2023-03-29T17:44:30.843Z,4.30
2023-03-29T17:46:57.252Z,5.43
2023-03-29T17:49:23.616Z,6.28
2023-03-29T17:51:50.192Z,8.30
2023-03-29T17:54:16.649Z,8.15
2023-03-29T17:56:43.027Z,5.70
2023-03-29T17:59:09.398Z,4.30
2023-03-29T18:01:38.548Z,5.57
2023-03-29T18:04:05.612Z,4.50
2023-03-29T18:06:32.005Z,4.70
2023-03-29T18:08:58.355Z,6.57
2023-03-29T18:11:24.736Z,6.90
2023-03-29T18:13:52.160Z,7.53
2023-03-29T18:16:22.046Z,6.47
2023-03-29T18:18:48.676Z,6.38
2023-03-29T18:21:16.966Z,6.10
2023-03-29T18:23:47.937Z,5.88
2023-03-29T18:26:16.117Z,7.40
2023-03-29T18:28:44.990Z,9.02
2023-03-29T18:31:11.278Z,8.60
2023-03-29T18:33:37.622Z,5.88
2023-03-29T18:36:07.726Z,6.90
2023-03-29T18:38:35.793Z,6.75
2023-03-29T18:41:03.869Z,8.88
2023-03-29T18:43:31.906Z,7.93
2023-03-29T18:45:58.467Z,7.55
2023-03-29T18:48:25.329Z,7.25
2023-03-29T18:50:52.001Z,6.88
2023-03-29T18:53:18.888Z,6.93
2023-03-29T18:55:45.727Z,6.57
2023-03-29T18:58:13.707Z,7.18
2023-03-29T19:00:41.355Z,6.85
2023-03-29T19:03:08.755Z,6.20
2023-03-29T19:05:39.575Z,5.85
2023-03-29T19:08:06.926Z,4.43
2023-03-29T19:10:37.094Z,4.15
2023-03-29T19:13:03.782Z,3.40
2023-03-29T19:15:31.070Z,3.50
2023-03-29T19:20:23.872Z,4.55
2023-03-29T19:22:50.183Z,4.53
2023-03-29T19:25:16.558Z,4.90
2023-03-29T19:27:42.914Z,4.22
2023-03-29T19:30:09.819Z,3.55
2023-03-29T19:32:36.155Z,3.80
2023-03-29T19:35:02.516Z,3.60
2023-03-29T19:37:28.865Z,3.53
2023-03-29T19:39:55.156Z,3.00
2023-03-29T19:42:21.530Z,3.42
2023-03-29T19:44:47.843Z,3.70
2023-03-29T19:47:14.168Z,3.20
2023-03-29T19:49:40.740Z,3.10
2023-03-29T19:52:07.254Z,3.30
2023-03-29T19:54:33.718Z,3.70
2023-03-29T19:57:00.078Z,3.92
2023-03-29T19:59:26.821Z,4.78
2023-03-29T20:01:53.868Z,4.20
2023-03-29T20:04:21.695Z,3.70
2023-03-29T20:06:48.610Z,3.60
2023-03-29T20:09:15.260Z,3.50
2023-03-29T20:11:42.484Z,3.35
2023-03-29T20:14:08.795Z,5.40
2023-03-29T20:16:35.285Z,14.10
2023-03-29T20:19:02.556Z,11.70
2023-03-29T20:21:29.465Z,8.32
2023-03-29T20:23:56.000Z,4.90
2023-03-29T20:26:22.602Z,6.80
2023-03-29T20:28:49.070Z,3.40
2023-03-29T20:31:15.516Z,3.50
2023-03-29T20:33:41.874Z,3.67
2023-03-29T20:36:08.475Z,4.30
2023-03-29T20:38:35.096Z,3.78
2023-03-29T20:41:02.556Z,3.30
2023-03-29T20:43:29.417Z,3.33
2023-03-29T20:45:55.746Z,2.75
2023-03-29T20:48:23.319Z,2.83
2023-03-29T20:50:50.429Z,2.60
2023-03-29T20:53:16.829Z,2.70
2023-03-29T20:55:43.195Z,3.15
2023-03-29T20:58:09.804Z,2.85
2023-03-29T21:00:36.117Z,2.83
2023-03-29T21:03:02.499Z,3.88
2023-03-29T21:05:31.830Z,3.00
2023-03-29T21:07:58.513Z,3.20
2023-03-29T21:10:26.572Z,2.80
2023-03-29T21:12:52.972Z,2.50
2023-03-29T21:15:19.272Z,2.45
2023-03-29T21:17:46.074Z,2.55
2023-03-29T21:20:13.672Z,2.55
2023-03-29T21:22:41.475Z,2.50
2023-03-29T21:25:12.680Z,2.58
2023-03-29T21:27:38.963Z,2.58
2023-03-29T21:30:06.408Z,2.72
2023-03-29T21:32:32.871Z,2.70
2023-03-29T21:34:59.282Z,2.80
2023-03-29T21:37:26.011Z,2.70
2023-03-29T21:39:52.317Z,2.42
2023-03-29T21:42:18.720Z,2.40
2023-03-29T21:44:45.132Z,2.40
2023-03-29T21:47:11.464Z,2.17
2023-03-29T21:49:37.938Z,1.90
2023-03-29T21:52:04.356Z,2.00
2023-03-29T21:54:30.660Z,2.40
2023-03-29T21:56:56.978Z,2.47
2023-03-29T21:59:23.421Z,2.08
2023-03-29T22:01:49.754Z,2.35
2023-03-29T22:04:25.792Z,2.45
2023-03-29T22:06:59.898Z,2.40
2023-03-29T22:09:26.195Z,2.63
2023-03-29T22:11:53.021Z,2.42
2023-03-29T22:14:19.497Z,2.58
2023-03-29T22:16:46.055Z,3.00
2023-03-29T22:19:12.452Z,2.60
2023-03-29T22:21:38.751Z,2.17
2023-03-29T22:24:05.362Z,2.20
2023-03-29T22:26:32.907Z,2.63
2023-03-29T22:29:00.499Z,2.47
2023-03-29T22:31:28.485Z,2.80
2023-03-29T22:33:55.558Z,2.67
2023-03-29T22:36:28.266Z,2.42
2023-03-29T22:38:55.522Z,2.00
2023-03-29T22:41:24.026Z,1.90
2023-03-29T22:43:55.583Z,2.28
2023-03-29T22:46:22.762Z,2.08
2023-03-29T22:48:49.475Z,2.08
2023-03-29T22:51:16.434Z,1.80
2023-03-29T22:53:43.868Z,1.90
2023-03-29T22:58:37.435Z,1.80
2023-03-29T23:01:05.025Z,1.85
2023-03-29T23:03:32.122Z,2.00
2023-03-29T23:06:00.051Z,1.63
2023-03-29T23:08:26.679Z,1.75
2023-03-29T23:10:53.341Z,1.80
2023-03-29T23:13:20.038Z,1.80
2023-03-29T23:15:49.265Z,1.75
2023-03-29T23:18:17.839Z,1.80
2023-03-29T23:20:44.777Z,1.80
2023-03-29T23:23:11.375Z,1.60
2023-03-29T23:25:37.850Z,1.90
2023-03-29T23:28:04.840Z,1.67
2023-03-29T23:30:31.378Z,1.88
2023-03-29T23:32:58.267Z,1.75
2023-03-29T23:35:25.020Z,1.60
2023-03-29T23:37:51.729Z,1.58
2023-03-29T23:40:18.577Z,1.65
2023-03-29T23:42:46.393Z,1.70
2023-03-29T23:45:15.861Z,1.67
2023-03-29T23:47:43.191Z,1.60
2023-03-29T23:52:37.115Z,1.98
2023-03-29T23:55:04.295Z,1.60
2023-03-29T23:57:31.102Z,1.77
2023-03-29T23:59:57.669Z,1.75
